»·PEaware :: N960R KLAX-KSAN

N960R :: KLAX-KSAN

FLIGHT INFORMATION

Flight Status: Arrived
Operator: Privately registered:
United States
More flights under this callsign
Pilot: Erik N. (24851)
Aircraft: CESSNA 172 SKYHAWK
(C172)
More flights by this aircraft type
Origin: KLAX Los Angeles Intl
United States
Destination: KSAN San Diego Intl-Lindbergh
United States
More flights between these airports :: More routes between these airports
Route: PADDR PACIF
File this flight plan on PilotEdge
Remarks: CAT-11 Rating
Altitude:
(Current/Filed)
7,500ft
Speed:
(Current/Filed)
120kts
Departed: 13-Aug-19 02:00 PM
Arrived: 13-Aug-19 02:56 PM
Distance/Time
Traveled:
95nm/0:56
Distance/Time
To Go:
Arrived

Flight Plot

Page will automatically refresh every two minutes.

Flight plan parsing failed; only flown route is shown


Map Options




Map Legend


Flown Route
Filed Route
Departure Airport
Arrival Airport
Navaid (VOR, NDB)
Fix

Horizontal Profiles

Position Reports

Time Latitude Longitude Heading Altitude Ground
Speed
13-Aug-19 13:29 33.934137 -118.395574 175 106ft 0kts
13-Aug-19 13:30 33.934137 -118.395574 175 106ft 0kts
13-Aug-19 13:31 33.934137 -118.395574 175 106ft 0kts
13-Aug-19 13:32 33.934137 -118.395574 175 106ft 0kts
13-Aug-19 13:33 33.934137 -118.395574 175 106ft 0kts
13-Aug-19 13:34 33.934137 -118.395574 175 106ft 0kts
13-Aug-19 13:35 33.934137 -118.395574 175 106ft 0kts
13-Aug-19 13:36 33.934137 -118.395574 175 106ft 0kts
13-Aug-19 13:37 33.934137 -118.395574 175 106ft 0kts
13-Aug-19 13:38 33.934137 -118.395574 175 106ft 0kts
13-Aug-19 13:40 33.934137 -118.395574 175 106ft 0kts
13-Aug-19 13:41 33.934137 -118.395574 175 106ft 0kts
13-Aug-19 13:42 33.934137 -118.395574 175 106ft 0kts
13-Aug-19 13:43 33.934137 -118.395574 175 106ft 0kts
13-Aug-19 13:44 33.934137 -118.395574 175 106ft 0kts
13-Aug-19 13:45 33.934137 -118.395574 175 106ft 0kts
13-Aug-19 13:46 33.934137 -118.395574 175 106ft 0kts
13-Aug-19 13:47 33.934137 -118.395574 175 106ft 0kts
13-Aug-19 13:48 33.934137 -118.395574 175 106ft 0kts
13-Aug-19 13:49 33.934137 -118.395574 175 106ft 0kts
13-Aug-19 13:50 33.934137 -118.395574 175 106ft 0kts
13-Aug-19 13:51 33.934137 -118.395574 175 106ft 0kts
13-Aug-19 13:52 33.934137 -118.395574 175 106ft 0kts
13-Aug-19 13:53 33.934137 -118.395574 175 106ft 0kts
13-Aug-19 13:54 33.934137 -118.395574 175 106ft 0kts
13-Aug-19 13:55 33.934192 -118.395219 65 106ft 8kts
13-Aug-19 13:55 33.935175 -118.391941 82 102ft 16kts
13-Aug-19 13:57 33.935831 -118.385507 82 99ft 15kts
13-Aug-19 13:58 33.936370 -118.382788 15 96ft 0kts
13-Aug-19 13:58 33.937281 -118.383217 284 96ft 9kts
13-Aug-19 14:00 33.934586 -118.409683 266 803ft 88kts
13-Aug-19 14:00 33.933235 -118.433844 265 1676ft 84kts
13-Aug-19 14:02 33.922330 -118.460345 195 2748ft 86kts
13-Aug-19 14:03 33.898262 -118.461883 179 3601ft 88kts
13-Aug-19 14:03 33.881947 -118.447267 130 4260ft 95kts
13-Aug-19 14:04 33.872898 -118.417420 121 5030ft 95kts
13-Aug-19 14:05 33.856088 -118.392243 139 5672ft 99kts
13-Aug-19 14:06 33.836199 -118.370986 163 6367ft 91kts
13-Aug-19 14:07 33.812978 -118.362361 166 7063ft 84kts
13-Aug-19 14:08 33.789196 -118.354018 168 7521ft 98kts
13-Aug-19 14:09 33.759466 -118.342654 167 7515ft 118kts
13-Aug-19 14:10 33.727610 -118.331898 163 7515ft 119kts
13-Aug-19 14:11 33.696180 -118.319746 167 7514ft 117kts
13-Aug-19 14:12 33.664824 -118.310116 165 7513ft 116kts
13-Aug-19 14:13 33.634065 -118.298302 165 7532ft 115kts
13-Aug-19 14:14 33.603006 -118.286780 165 7534ft 117kts
13-Aug-19 14:15 33.578987 -118.261799 125 7538ft 122kts
13-Aug-19 14:16 33.560441 -118.227920 127 7540ft 121kts
13-Aug-19 14:17 33.541202 -118.194533 126 7540ft 121kts
13-Aug-19 14:18 33.522041 -118.161237 127 7539ft 121kts
13-Aug-19 14:19 33.502744 -118.128253 127 7535ft 121kts
13-Aug-19 14:20 33.484120 -118.094437 125 7530ft 121kts
13-Aug-19 14:21 33.465489 -118.060712 126 7526ft 121kts
13-Aug-19 14:22 33.445969 -118.027987 127 7526ft 121kts
13-Aug-19 14:23 33.426569 -117.994963 127 7529ft 121kts
13-Aug-19 14:24 33.407332 -117.961646 127 7533ft 121kts
13-Aug-19 14:25 33.388788 -117.927640 125 7535ft 122kts
13-Aug-19 14:26 33.370105 -117.893914 127 7535ft 121kts
13-Aug-19 14:27 33.350920 -117.860443 127 7534ft 122kts
13-Aug-19 14:28 33.331802 -117.826931 127 7532ft 122kts
13-Aug-19 14:29 33.312721 -117.793320 127 7533ft 122kts
13-Aug-19 14:30 33.293666 -117.759655 127 7534ft 122kts
13-Aug-19 14:31 33.269203 -117.732628 143 7535ft 120kts
13-Aug-19 14:32 33.243820 -117.706483 141 7535ft 120kts
13-Aug-19 14:33 33.218604 -117.680238 142 7535ft 120kts
13-Aug-19 14:34 33.193351 -117.653967 142 7535ft 120kts
13-Aug-19 14:35 33.168021 -117.627730 142 7535ft 120kts
13-Aug-19 14:36 33.142608 -117.601518 142 7535ft 120kts
13-Aug-19 14:37 33.117192 -117.575434 142 7535ft 120kts
13-Aug-19 14:38 33.091742 -117.549264 142 7535ft 121kts
13-Aug-19 14:39 33.066151 -117.522757 142 7535ft 122kts
13-Aug-19 14:40 33.040399 -117.495954 142 7535ft 123kts
13-Aug-19 14:41 33.015001 -117.470807 151 6854ft 117kts
13-Aug-19 14:42 32.987889 -117.447285 142 5961ft 124kts
13-Aug-19 14:43 32.962795 -117.418320 139 5036ft 128kts
13-Aug-19 14:44 32.935332 -117.391339 144 3939ft 127kts
13-Aug-19 14:45 32.907250 -117.365239 144 3125ft 132kts
13-Aug-19 14:46 32.878258 -117.338631 144 3013ft 135kts
13-Aug-19 14:47 32.848225 -117.311130 145 3006ft 130kts
13-Aug-19 14:48 32.820581 -117.285483 145 2754ft 123kts
13-Aug-19 14:49 32.793345 -117.260140 145 1986ft 134kts
13-Aug-19 14:50 32.761608 -117.238208 133 1697ft 122kts
13-Aug-19 14:51 32.748267 -117.204779 104 948ft 103kts
13-Aug-19 14:52 32.741330 -117.173449 107 965ft 94kts
13-Aug-19 14:53 32.728908 -117.153515 218 773ft 63kts
13-Aug-19 14:54 32.729115 -117.171634 282 293ft 67kts
13-Aug-19 14:55 32.732990 -117.187418 275 16ft 20kts
13-Aug-19 14:56 32.732570 -117.189871 270 15ft 20kts
13-Aug-19 14:57 32.731653 -117.191798 286 14ft 0kts
13-Aug-19 14:58 32.731653 -117.191798 286 14ft 0kts

Navigation Log

Ident Type
Flight plan parsing failed, navigation log unavailable